Time;durP1;ratioP1;P1;durP2;ratioP2;P2;SDS_P1;SDS_P2;PMS_P1;PMS_P2;Temp;Humidity;BMP_temperature;BMP_pressure;BME280_temperature;BME280_humidity;BME280_pressure;Samples;Min_cycle;Max_cycle;Signal;HPM_P1;HPM_P2
2022/11/27 00:01:37;;;;;;;1.45;0.80;;;;;;;9.42;96.13;102339.69;4941958;28;20047;-73
2022/11/27 00:04:06;;;;;;;0.90;0.65;;;;;;;9.33;97.98;102340.84;4948598;28;20059;-76
2022/11/27 00:06:36;;;;;;;2.38;0.93;;;;;;;9.27;98.31;102346.50;4950024;28;20054;-76
2022/11/27 00:09:06;;;;;;;3.17;1.75;;;;;;;9.29;97.19;102346.63;4949487;28;20520;-75
2022/11/27 00:11:38;;;;;;;7.20;1.35;;;;;;;9.29;96.46;102334.59;4943553;28;20050;-76
2022/11/27 00:14:09;;;;;;;2.15;1.02;;;;;;;9.25;97.57;102340.34;4941949;28;20057;-74
2022/11/27 00:16:37;;;;;;;3.40;1.67;;;;;;;9.18;97.94;102327.88;4944828;28;20047;-74
2022/11/27 00:19:06;;;;;;;2.83;1.35;;;;;;;9.14;98.94;102321.66;4945868;28;20065;-74
2022/11/27 00:21:36;;;;;;;3.45;1.85;;;;;;;9.10;99.81;102324.84;4948949;28;20051;-75
2022/11/27 00:24:08;;;;;;;3.47;1.75;;;;;;;9.09;100.00;102320.47;4941910;28;20051;-75
2022/11/27 00:26:37;;;;;;;2.85;1.20;;;;;;;9.10;100.00;102313.63;4944067;28;20553;-75
2022/11/27 00:29:08;;;;;;;2.63;1.10;;;;;;;9.09;99.79;102314.41;4950797;28;20059;-75
2022/11/27 00:31:37;;;;;;;4.43;1.45;;;;;;;9.04;100.00;102308.09;4954589;28;20501;-76
2022/11/27 00:34:07;;;;;;;2.63;1.27;;;;;;;9.02;100.00;102310.56;4951531;28;20058;-76
2022/11/27 00:36:37;;;;;;;3.50;1.00;;;;;;;9.04;100.00;102323.56;4949817;28;20051;-75
2022/11/27 00:39:06;;;;;;;2.05;0.80;;;;;;;9.05;100.00;102320.19;4945642;28;20039;-75
2022/11/27 00:41:35;;;;;;;4.15;1.05;;;;;;;9.06;100.00;102324.56;4944022;28;20110;-75
2022/11/27 00:44:04;;;;;;;2.90;0.80;;;;;;;9.04;100.00;102323.56;4942800;28;20047;-75
2022/11/27 00:46:35;;;;;;;0.63;0.50;;;;;;;8.93;99.44;102310.91;4953805;28;20059;-74
2022/11/27 00:49:06;;;;;;;4.70;0.80;;;;;;;8.79;99.47;102306.56;4955110;28;20051;-74
2022/11/27 00:51:35;;;;;;;0.88;0.50;;;;;;;8.73;100.00;102306.22;4953652;28;20100;-74
2022/11/27 00:54:04;;;;;;;2.42;0.70;;;;;;;8.75;100.00;102321.00;4949372;28;20055;-76
2022/11/27 00:56:34;;;;;;;1.02;0.77;;;;;;;8.76;100.00;102321.88;4945076;28;20051;-76
2022/11/27 00:59:03;;;;;;;1.13;0.47;;;;;;;8.79;100.00;102333.28;4957414;28;20113;-76
2022/11/27 01:01:35;;;;;;;1.67;0.75;;;;;;;8.80;100.00;102329.91;4942558;28;20549;-75
2022/11/27 01:04:05;;;;;;;2.23;1.07;;;;;;;8.82;100.00;102332.59;4951651;28;20055;-75
2022/11/27 01:06:34;;;;;;;1.02;0.70;;;;;;;8.83;100.00;102328.31;4954047;28;20312;-74
2022/11/27 01:09:02;;;;;;;1.98;0.70;;;;;;;8.77;100.00;102314.25;4953681;28;20054;-75
2022/11/27 01:11:33;;;;;;;1.45;0.95;;;;;;;8.84;100.00;102315.50;4951636;28;20079;-75
2022/11/27 01:14:03;;;;;;;2.00;0.63;;;;;;;8.80;100.00;102308.38;4951526;28;20051;-75
2022/11/27 01:16:36;;;;;;;2.45;0.98;;;;;;;8.71;100.00;102303.53;4947217;28;20047;-75
2022/11/27 01:19:06;;;;;;;3.35;0.93;;;;;;;8.65;100.00;102304.84;4952437;28;20047;-75
2022/11/27 01:21:37;;;;;;;2.10;0.90;;;;;;;8.62;100.00;102302.09;4939879;28;20051;-75
2022/11/27 01:24:07;;;;;;;2.60;1.08;;;;;;;8.64;100.00;102300.50;4943546;28;20105;-76
2022/11/27 01:26:36;;;;;;;1.92;1.00;;;;;;;8.65;100.00;102297.09;4947909;28;20394;-79
2022/11/27 01:29:05;;;;;;;3.25;0.75;;;;;;;8.60;100.00;102295.13;4951734;28;20054;-79
2022/11/27 01:31:40;;;;;;;6.03;0.95;;;;;;;8.59;100.00;102292.47;4936809;28;20134;-77
2022/11/27 01:34:13;;;;;;;0.98;0.80;;;;;;;8.62;100.00;102296.91;4954500;28;20051;-77
2022/11/27 01:36:42;;;;;;;2.50;0.77;;;;;;;8.65;100.00;102298.00;4957670;28;20039;-76
2022/11/27 01:39:15;;;;;;;10.32;1.13;;;;;;;8.63;100.00;102298.69;4949299;28;20047;-76
2022/11/27 01:41:45;;;;;;;1.90;1.13;;;;;;;8.60;100.00;102289.06;4942714;28;20055;-76
2022/11/27 01:44:52;;;;;;;3.47;1.08;;;;;;;8.56;100.00;102272.50;4941857;28;20047;-77
2022/11/27 01:47:32;;;;;;;4.32;1.45;;;;;;;8.55;100.00;102263.00;4946268;28;20058;-76
2022/11/27 01:50:09;;;;;;;2.65;1.20;;;;;;;8.55;100.00;102278.47;4951284;28;20051;-76
2022/11/27 01:52:42;;;;;;;2.00;1.10;;;;;;;8.52;100.00;102261.91;4951216;28;20073;-77
2022/11/27 01:55:19;;;;;;;3.65;1.30;;;;;;;8.47;100.00;102256.44;4947501;28;20732;-76
2022/11/27 01:57:50;;;;;;;2.22;1.38;;;;;;;8.48;100.00;102253.09;4945161;28;20435;-74
2022/11/27 02:00:20;;;;;;;4.40;1.42;;;;;;;8.47;100.00;102251.28;4949307;28;20047;-74
2022/11/27 02:02:51;;;;;;;9.93;1.20;;;;;;;8.49;100.00;102257.44;4949771;28;20043;-75
2022/11/27 02:05:22;;;;;;;2.05;1.45;;;;;;;8.51;100.00;102263.59;4937274;28;20055;-75
2022/11/27 02:07:53;;;;;;;4.15;1.40;;;;;;;8.54;100.00;102261.22;4954020;28;20042;-76
2022/11/27 02:10:22;;;;;;;5.93;1.70;;;;;;;8.55;100.00;102255.25;4955239;28;20065;-76
2022/11/27 02:12:59;;;;;;;4.22;1.70;;;;;;;8.55;100.00;102238.88;4938271;28;20793;-75
2022/11/27 02:15:36;;;;;;;2.20;1.50;;;;;;;8.55;100.00;102233.72;4938249;28;20051;-76
2022/11/27 02:18:13;;;;;;;3.65;2.55;;;;;;;8.50;100.00;102222.25;4948763;28;20576;-75
2022/11/27 02:20:51;;;;;;;1.80;1.15;;;;;;;8.46;100.00;102226.31;4942334;28;20047;-74
2022/11/27 02:24:07;;;;;;;5.63;1.77;;;;;;;8.46;100.00;102217.69;4945678;28;20054;-76
2022/11/27 02:27:02;;;;;;;6.22;1.90;;;;;;;8.47;100.00;102210.03;4945710;28;20047;-78
2022/11/27 02:29:34;;;;;;;5.18;1.95;;;;;;;8.45;100.00;102201.28;4950089;28;20050;-78
2022/11/27 02:32:10;;;;;;;2.47;1.50;;;;;;;8.43;100.00;102182.28;4945215;28;20056;-78
2022/11/27 02:34:44;;;;;;;3.78;1.23;;;;;;;8.39;100.00;102163.09;4954295;28;20054;-78
2022/11/27 02:37:17;;;;;;;6.85;1.73;;;;;;;8.29;100.00;102153.03;4951227;28;20054;-79
2022/11/27 02:39:53;;;;;;;3.17;1.92;;;;;;;8.22;100.00;102163.75;4949039;28;20058;-77
2022/11/27 02:42:29;;;;;;;5.60;2.08;;;;;;;8.21;100.00;102154.25;4949801;28;20061;-76
2022/11/27 02:45:03;;;;;;;3.70;1.70;;;;;;;8.22;100.00;102157.69;4944814;28;20051;-78
2022/11/27 02:47:33;;;;;;;5.43;1.95;;;;;;;8.25;100.00;102168.22;4949481;28;20047;-78
2022/11/27 02:50:04;;;;;;;4.32;2.00;;;;;;;8.26;100.00;102193.22;4951977;28;20062;-79
2022/11/27 02:52:33;;;;;;;3.53;2.05;;;;;;;8.27;100.00;102197.56;4948144;28;20055;-77
2022/11/27 02:55:06;;;;;;;5.30;1.90;;;;;;;8.24;100.00;102176.75;4950792;28;20081;-78
2022/11/27 02:57:49;;;;;;;;;;;;;;;8.19;100.00;102184.19;4941246;28;20536;-77
2022/11/27 03:00:20;;;;;;;4.85;2.05;;;;;;;8.22;100.00;102184.38;4936864;28;20060;-77
2022/11/27 03:02:54;;;;;;;3.38;2.50;;;;;;;8.25;100.00;102186.28;4947702;28;20085;-77
2022/11/27 03:05:26;;;;;;;5.32;2.40;;;;;;;8.26;100.00;102182.88;4949486;28;20122;-77
2022/11/27 03:08:00;;;;;;;3.83;2.38;;;;;;;8.26;100.00;102175.16;4951614;28;20050;-77
2022/11/27 03:10:34;;;;;;;7.82;2.13;;;;;;;8.27;100.00;102169.19;4950451;28;20065;-76
2022/11/27 03:13:04;;;;;;;5.50;2.15;;;;;;;8.28;100.00;102182.19;4940394;28;20078;-77
2022/11/27 03:15:46;;;;;;;6.00;2.13;;;;;;;8.28;100.00;102176.13;4949423;28;20055;-77
2022/11/27 03:18:23;;;;;;;5.45;1.73;;;;;;;8.19;100.00;102167.03;4951245;28;20073;-78
2022/11/27 03:21:01;;;;;;;4.60;2.42;;;;;;;8.11;100.00;102157.94;4959793;28;20647;-78
2022/11/27 03:23:30;;;;;;;7.70;2.25;;;;;;;8.03;100.00;102153.09;4949796;28;20513;-78
2022/11/27 03:25:58;;;;;;;3.58;2.00;;;;;;;7.96;100.00;102147.56;4947599;28;20053;-76
2022/11/27 03:28:29;;;;;;;5.53;2.03;;;;;;;7.92;100.00;102145.59;4947542;28;20047;-76
2022/11/27 03:31:00;;;;;;;3.80;1.85;;;;;;;7.88;100.00;102143.63;4944537;28;20043;-76
2022/11/27 03:33:28;;;;;;;3.53;1.92;;;;;;;7.85;100.00;102138.25;4951221;28;20047;-80
2022/11/27 03:35:57;;;;;;;4.63;1.92;;;;;;;7.86;100.00;102146.91;4950675;28;20066;-80
2022/11/27 03:38:26;;;;;;;2.33;1.90;;;;;;;7.91;100.00;102155.81;4949197;28;20082;-76
2022/11/27 03:41:03;;;;;;;3.42;2.38;;;;;;;7.93;100.00;102136.19;4949466;28;20058;-75
2022/11/27 03:43:48;;;;;;;3.90;1.80;;;;;;;7.90;100.00;102120.50;4943695;28;20055;-77
2022/11/27 03:46:24;;;;;;;4.60;2.00;;;;;;;7.84;100.00;102074.66;4947073;28;20058;-76
2022/11/27 03:49:04;;;;;;;2.78;1.55;;;;;;;7.80;100.00;102066.63;4950032;28;20525;-77
2022/11/27 03:51:42;;;;;;;3.72;2.15;;;;;;;7.76;100.00;102087.06;4954732;28;20055;-81
2022/11/27 03:54:24;;;;;;;4.00;1.60;;;;;;;7.79;100.00;102080.31;4941848;28;20077;-74
2022/11/27 03:57:01;;;;;;;4.18;1.90;;;;;;;7.81;100.00;102084.78;4944820;28;20062;-75
2022/11/27 03:59:33;;;;;;;2.92;1.70;;;;;;;7.85;100.00;102101.31;4943647;28;20050;-75
2022/11/27 04:02:03;;;;;;;7.00;3.35;;;;;;;7.88;100.00;102117.88;4946995;28;20512;-74
2022/11/27 04:04:32;;;;;;;14.88;6.22;;;;;;;7.90;100.00;102125.66;4949846;28;20539;-74
2022/11/27 04:07:01;;;;;;;6.55;2.72;;;;;;;7.91;100.00;102128.34;4948506;28;20051;-74
2022/11/27 04:09:30;;;;;;;5.30;2.28;;;;;;;7.93;100.00;102131.91;4949976;28;20052;-74
2022/11/27 04:11:58;;;;;;;3.15;1.92;;;;;;;7.96;100.00;102133.78;4957141;28;20054;-74
2022/11/27 04:14:27;;;;;;;3.88;2.10;;;;;;;7.94;100.00;102122.50;4940312;28;20054;-74
2022/11/27 04:16:56;;;;;;;2.50;1.75;;;;;;;7.95;100.00;102129.44;4947638;28;20130;-74
2022/11/27 04:19:26;;;;;;;2.80;2.05;;;;;;;7.94;100.00;102117.34;4945753;28;20066;-74
2022/11/27 04:21:55;;;;;;;6.93;1.90;;;;;;;8.00;100.00;102122.88;4943231;28;20065;-74
2022/11/27 04:24:24;;;;;;;2.72;1.58;;;;;;;8.02;100.00;102121.28;4953922;28;20761;-74
2022/11/27 04:26:53;;;;;;;2.85;1.83;;;;;;;8.04;100.00;102106.81;4953429;28;20141;-74
2022/11/27 04:29:21;;;;;;;4.50;3.20;;;;;;;7.99;100.00;102100.47;4947247;28;20751;-74
2022/11/27 04:31:50;;;;;;;5.43;2.72;;;;;;;7.93;100.00;102089.78;4950650;28;20051;-74
2022/11/27 04:34:19;;;;;;;6.35;2.55;;;;;;;7.90;100.00;102085.34;4943525;28;20071;-74
2022/11/27 04:36:49;;;;;;;9.13;2.40;;;;;;;7.83;100.00;102077.13;4947135;28;20055;-73
2022/11/27 04:39:18;;;;;;;4.07;2.10;;;;;;;7.74;100.00;102073.19;4940684;28;20436;-74
2022/11/27 04:41:46;;;;;;;6.82;2.53;;;;;;;7.67;100.00;102065.88;4952796;28;20078;-74
2022/11/27 04:44:15;;;;;;;3.60;2.10;;;;;;;7.64;100.00;102055.38;4950773;28;20051;-75
2022/11/27 04:46:44;;;;;;;2.88;1.70;;;;;;;7.65;100.00;102058.84;4945439;28;20039;-74
2022/11/27 04:49:13;;;;;;;5.45;1.73;;;;;;;7.63;100.00;102056.19;4947694;28;20573;-75
2022/11/27 04:51:41;;;;;;;3.38;1.65;;;;;;;7.65;100.00;102062.31;4937297;28;20059;-73
2022/11/27 04:54:12;;;;;;;3.80;1.90;;;;;;;7.68;100.00;102062.50;4942998;28;20043;-74
2022/11/27 04:56:40;;;;;;;4.93;1.95;;;;;;;7.71;100.00;102052.38;4939990;28;20066;-74
2022/11/27 04:59:09;;;;;;;3.80;2.20;;;;;;;7.73;100.00;102055.94;4942200;28;20062;-74
2022/11/27 05:01:38;;;;;;;4.78;2.25;;;;;;;7.80;100.00;102046.03;4947626;28;20498;-74
2022/11/27 05:04:06;;;;;;;3.50;2.05;;;;;;;7.81;100.00;102043.56;4943166;28;20051;-75
2022/11/27 05:06:35;;;;;;;3.13;1.92;;;;;;;7.84;100.00;102058.31;4945215;28;20059;-74
2022/11/27 05:09:04;;;;;;;3.92;1.98;;;;;;;7.84;100.00;102051.47;4941195;28;20553;-75
2022/11/27 05:11:34;;;;;;;5.20;2.05;;;;;;;7.86;100.00;102052.44;4956601;28;20089;-73
2022/11/27 05:14:15;;;;;;;2.90;1.60;;;;;;;7.87;100.00;102049.06;4943586;28;20056;-74
2022/11/27 05:16:45;;;;;;;9.85;2.03;;;;;;;7.87;100.00;102045.59;4943663;28;20059;-73
2022/11/27 05:19:14;;;;;;;3.45;2.25;;;;;;;7.88;100.00;102034.47;4943428;28;20051;-73
2022/11/27 05:21:43;;;;;;;2.50;1.67;;;;;;;7.89;100.00;102041.44;4944722;28;20048;-74
2022/11/27 05:24:13;;;;;;;4.32;2.45;;;;;;;7.89;100.00;102036.28;4944408;28;20053;-74
2022/11/27 05:26:43;;;;;;;3.85;2.10;;;;;;;7.81;100.00;102032.34;4948063;28;20058;-74
2022/11/27 05:29:13;;;;;;;3.33;2.03;;;;;;;7.71;100.00;102024.03;4952486;28;20671;-76
2022/11/27 05:31:42;;;;;;;4.38;1.98;;;;;;;7.69;100.00;102019.59;4948589;28;20078;-74
2022/11/27 05:34:11;;;;;;;4.07;2.13;;;;;;;7.68;100.00;102016.13;4952140;28;20054;-75
2022/11/27 05:36:40;;;;;;;6.18;2.33;;;;;;;7.65;100.00;102015.03;4950069;28;20051;-75
2022/11/27 05:39:10;;;;;;;3.85;2.08;;;;;;;7.61;100.00;102013.97;4954463;28;20047;-74
2022/11/27 05:41:40;;;;;;;4.90;1.90;;;;;;;7.59;100.00;102010.41;4951809;28;20066;-74
2022/11/27 05:44:12;;;;;;;2.10;1.52;;;;;;;7.57;100.00;102009.44;4940387;28;20607;-74
2022/11/27 05:46:42;;;;;;;;;;;;;;;7.44;100.00;101991.44;4951007;28;20090;-73
2022/11/27 05:49:13;;;;;;;3.25;2.10;;;;;;;7.51;100.00;101993.59;4949947;28;19922;-74
2022/11/27 05:51:42;;;;;;;4.70;2.08;;;;;;;7.54;100.00;101991.22;4942687;28;20134;-73
2022/11/27 05:54:11;;;;;;;2.47;1.73;;;;;;;7.58;100.00;101985.44;4945921;28;20047;-75
2022/11/27 05:56:39;;;;;;;4.82;2.33;;;;;;;7.62;100.00;101979.69;4950531;28;20063;-73
2022/11/27 05:59:11;;;;;;;4.07;2.03;;;;;;;7.67;100.00;101978.31;4943318;28;20050;-74
2022/11/27 06:01:40;;;;;;;4.38;1.75;;;;;;;7.70;100.00;101968.16;4949448;28;20517;-75
2022/11/27 06:04:08;;;;;;;1.92;1.60;;;;;;;7.73;100.00;101976.06;4945361;28;20055;-74
2022/11/27 06:06:37;;;;;;;3.88;2.00;;;;;;;7.75;100.00;101965.88;4950324;28;20053;-74
2022/11/27 06:09:06;;;;;;;5.82;1.83;;;;;;;7.79;100.00;101972.09;4956463;28;20055;-75
2022/11/27 06:11:34;;;;;;;5.93;2.15;;;;;;;7.79;100.00;101966.94;4954401;28;20047;-75
2022/11/27 06:14:03;;;;;;;4.93;1.90;;;;;;;7.76;100.00;101965.97;4951850;28;20055;-72
2022/11/27 06:16:34;;;;;;;3.88;1.40;;;;;;;7.78;100.00;101967.75;4953108;28;20051;-73
2022/11/27 06:19:02;;;;;;;4.43;1.60;;;;;;;7.73;100.00;101958.03;4950530;28;20599;-74
2022/11/27 06:21:31;;;;;;;5.57;2.22;;;;;;;7.70;100.00;101956.97;4954000;28;20225;-73
2022/11/27 06:24:00;;;;;;;6.05;2.08;;;;;;;7.63;100.00;101948.00;4950424;28;20051;-73
2022/11/27 06:26:31;;;;;;;4.93;2.00;;;;;;;7.57;100.00;101939.00;4950052;28;20039;-72
2022/11/27 06:29:01;;;;;;;4.35;2.03;;;;;;;7.54;100.00;101935.44;4951445;28;20087;-73
2022/11/27 06:31:31;;;;;;;4.47;2.13;;;;;;;7.50;100.00;101930.00;4953091;28;20082;-73
2022/11/27 06:34:02;;;;;;;5.28;1.92;;;;;;;7.50;100.00;101924.88;4954589;28;20057;-71
2022/11/27 06:36:32;;;;;;;4.03;1.80;;;;;;;7.50;100.00;101912.88;4951494;28;20840;-72
2022/11/27 06:39:01;;;;;;;5.82;2.10;;;;;;;7.50;100.00;101906.84;4954250;28;20054;-75
2022/11/27 06:41:30;;;;;;;3.78;2.05;;;;;;;7.52;100.00;101902.66;4951944;28;20070;-75
2022/11/27 06:44:00;;;;;;;4.28;2.70;;;;;;;7.51;100.00;101893.16;4950740;28;20051;-75
2022/11/27 06:46:30;;;;;;;4.07;2.15;;;;;;;7.53;100.00;101887.28;4951270;28;20051;-74
2022/11/27 06:48:59;;;;;;;4.35;1.98;;;;;;;7.55;100.00;101892.53;4953036;28;20130;-74
2022/11/27 06:51:32;;;;;;;7.13;3.00;;;;;;;7.55;100.00;101885.69;4947031;28;20940;-74
2022/11/27 06:54:01;;;;;;;7.70;2.17;;;;;;;7.58;100.00;101890.13;4936529;28;20057;-75
2022/11/27 06:56:32;;;;;;;2.80;1.48;;;;;;;7.61;100.00;101879.16;4949624;28;20533;-75
2022/11/27 06:59:02;;;;;;;5.00;2.15;;;;;;;7.61;100.00;101880.03;4951472;28;20094;-76
2022/11/27 07:01:33;;;;;;;4.28;1.95;;;;;;;7.62;100.00;101871.50;4946831;28;20051;-75
2022/11/27 07:04:01;;;;;;;5.00;2.30;;;;;;;7.60;100.00;101873.09;4949273;28;20161;-75
2022/11/27 07:06:32;;;;;;;5.90;2.10;;;;;;;7.61;100.00;101874.88;4948668;28;20078;-77
2022/11/27 07:09:00;;;;;;;2.67;1.38;;;;;;;7.60;100.00;101877.34;4943893;28;20047;-75
2022/11/27 07:11:30;;;;;;;4.05;1.30;;;;;;;7.59;100.00;101868.75;4947349;28;20051;-75
2022/11/27 07:14:00;;;;;;;5.20;1.27;;;;;;;7.58;100.00;101863.50;4940192;28;20054;-76
2022/11/27 07:16:31;;;;;;;2.47;1.00;;;;;;;7.55;99.25;101866.78;4947444;28;20602;-80
2022/11/27 07:19:02;;;;;;;3.47;0.90;;;;;;;7.57;98.91;101870.34;4944635;28;20087;-78
2022/11/27 07:21:33;;;;;;;0.70;0.50;;;;;;;7.54;97.23;101860.75;4950465;28;20055;-86
2022/11/27 07:24:02;;;;;;;3.97;0.88;;;;;;;7.47;96.01;101847.44;4947990;28;20047;-76
2022/11/27 07:26:32;;;;;;;4.10;1.05;;;;;;;7.45;96.72;101846.44;4945251;28;20644;-77
2022/11/27 07:29:00;;;;;;;1.45;0.73;;;;;;;7.44;96.84;101849.81;4950259;28;20140;-76
2022/11/27 07:31:30;;;;;;;2.72;0.90;;;;;;;7.43;96.80;101842.88;4942029;28;20557;-76
2022/11/27 07:33:59;;;;;;;2.40;0.93;;;;;;;7.41;97.22;101852.22;4945137;28;20047;-76
2022/11/27 07:36:29;;;;;;;3.08;0.82;;;;;;;7.41;98.11;101858.25;4953301;28;20490;-76
2022/11/27 07:39:00;;;;;;;2.58;1.30;;;;;;;7.37;97.23;101851.13;4954256;28;20047;-76
2022/11/27 07:41:29;;;;;;;2.63;0.90;;;;;;;7.36;97.88;101856.19;4943084;28;20475;-77
2022/11/27 07:43:57;;;;;;;1.85;1.00;;;;;;;7.37;97.36;101857.97;4949647;28;20064;-77
2022/11/27 07:46:26;;;;;;;0.95;0.77;;;;;;;7.32;97.36;101858.56;4945233;28;20043;-77
2022/11/27 07:48:55;;;;;;;2.55;0.80;;;;;;;7.32;97.40;101849.97;4946497;28;20058;-76
2022/11/27 07:51:24;;;;;;;1.77;0.80;;;;;;;7.31;97.57;101851.66;4948532;28;20211;-76
2022/11/27 07:53:52;;;;;;;1.67;1.08;;;;;;;7.30;97.86;101848.97;4943485;28;20050;-75
2022/11/27 07:56:23;;;;;;;4.72;0.95;;;;;;;7.21;99.25;101833.84;4951600;28;20550;-77
2022/11/27 07:58:51;;;;;;;2.35;1.30;;;;;;;7.25;99.63;101853.84;4911775;29;20063;-78
2022/11/27 08:01:21;;;;;;;3.92;1.42;;;;;;;7.23;100.00;101845.16;4908954;29;20115;-76
2022/11/27 08:03:49;;;;;;;3.75;1.17;;;;;;;7.23;100.00;101840.00;4913563;29;20055;-77
2022/11/27 08:06:19;;;;;;;3.10;1.75;;;;;;;7.18;100.00;101830.22;4915055;29;20135;-77
2022/11/27 08:08:49;;;;;;;4.07;1.83;;;;;;;7.13;100.00;101822.22;4913929;29;20150;-77
2022/11/27 08:11:24;;;;;;;8.00;2.45;;;;;;;7.07;100.00;101827.00;4914500;29;20139;-78
2022/11/27 08:13:57;;;;;;;2.20;1.52;;;;;;;7.05;100.00;101826.00;4916968;29;20059;-78
2022/11/27 08:16:24;;;;;;;;;;;;;;;7.03;100.00;101818.22;4916438;29;20056;-78
2022/11/27 08:18:53;;;;;;;1.75;1.00;;;;;;;7.01;100.00;101814.66;4911433;29;19926;-78
2022/11/27 08:21:22;;;;;;;3.25;1.48;;;;;;;6.96;100.00;101807.44;4909222;29;20543;-78
2022/11/27 08:23:51;;;;;;;2.45;1.30;;;;;;;6.93;100.00;101803.00;4913056;29;20048;-77
2022/11/27 08:26:20;;;;;;;5.07;1.35;;;;;;;6.92;100.00;101807.25;4914105;29;20075;-77
2022/11/27 08:28:53;;;;;;;2.60;1.65;;;;;;;6.91;100.00;101805.47;4914524;29;20569;-76
2022/11/27 08:31:23;;;;;;;3.33;1.35;;;;;;;6.89;100.00;101794.22;4912769;29;20040;-77
2022/11/27 08:33:52;;;;;;;6.00;1.85;;;;;;;6.87;100.00;101792.31;4916709;29;20512;-77
2022/11/27 08:36:21;;;;;;;5.95;1.80;;;;;;;6.83;100.00;101785.25;4916959;29;20540;-77
2022/11/27 08:38:49;;;;;;;4.07;1.63;;;;;;;6.79;100.00;101786.72;4908620;29;20407;-76
2022/11/27 08:41:18;;;;;;;4.68;1.25;;;;;;;6.78;100.00;101784.97;4910941;29;20108;-76
2022/11/27 08:43:49;;;;;;;5.90;2.08;;;;;;;6.77;100.00;101784.84;4909376;29;20047;-77
2022/11/27 08:46:17;;;;;;;2.17;1.50;;;;;;;6.76;100.00;101778.81;4920548;29;20064;-76
2022/11/27 08:48:46;;;;;;;4.53;1.60;;;;;;;6.76;100.00;101776.25;4914366;29;20075;-77
2022/11/27 08:51:23;;;;;;;3.22;1.67;;;;;;;6.77;100.00;101775.44;4914723;29;20482;-78
2022/11/27 08:53:53;;;;;;;8.48;1.55;;;;;;;6.77;100.00;101772.00;4910964;29;20115;-76
2022/11/27 08:56:30;;;;;;;3.28;1.50;;;;;;;6.70;100.00;101763.88;4922088;29;20069;-78
2022/11/27 08:59:07;;;;;;;3.70;1.73;;;;;;;6.72;100.00;101761.44;4949612;28;20062;-78
2022/11/27 09:01:36;;;;;;;5.22;1.73;;;;;;;6.72;100.00;101757.16;4954011;28;20051;-77
2022/11/27 09:04:05;;;;;;;6.13;2.08;;;;;;;6.66;100.00;101743.91;4952148;28;20486;-80
2022/11/27 09:06:35;;;;;;;4.32;2.03;;;;;;;6.57;100.00;101740.78;4952619;28;20075;-78
2022/11/27 09:09:05;;;;;;;6.57;2.30;;;;;;;6.60;100.00;101745.25;4948450;28;20063;-76
2022/11/27 09:11:35;;;;;;;4.70;2.00;;;;;;;6.59;100.00;101730.59;4948872;28;20057;-79
2022/11/27 09:14:07;;;;;;;5.43;2.00;;;;;;;6.60;100.00;101729.81;4952290;28;20054;-77
2022/11/27 09:16:36;;;;;;;5.03;1.70;;;;;;;6.55;100.00;101721.84;4947185;28;20079;-76
2022/11/27 09:19:05;;;;;;;4.30;2.08;;;;;;;6.55;100.00;101713.19;4951728;28;20050;-79
2022/11/27 09:21:33;;;;;;;2.17;1.38;;;;;;;6.49;100.00;101698.31;4952569;28;20047;-79
2022/11/27 09:24:03;;;;;;;3.63;1.98;;;;;;;6.50;100.00;101700.97;4952158;28;20055;-77
2022/11/27 09:26:32;;;;;;;2.33;1.77;;;;;;;6.50;100.00;101708.69;4947526;28;20047;-82
2022/11/27 09:29:05;;;;;;;5.75;2.03;;;;;;;6.49;100.00;101706.03;4945733;28;20055;-77
2022/11/27 09:31:35;;;;;;;3.08;1.80;;;;;;;6.48;100.00;101694.84;4954157;28;20706;-78
2022/11/27 09:34:05;;;;;;;3.22;2.00;;;;;;;6.40;100.00;101674.59;4953179;28;20061;-77
2022/11/27 09:36:33;;;;;;;6.78;2.35;;;;;;;6.42;100.00;101678.16;4957753;28;20232;-79
2022/11/27 09:39:02;;;;;;;7.57;2.30;;;;;;;6.41;100.00;101672.09;4951929;28;20050;-80
2022/11/27 09:41:47;;;;;;;4.15;2.40;;;;;;;6.42;100.00;101661.06;4949487;28;20114;-81
2022/11/27 09:44:30;;;;;;;2.58;1.80;;;;;;;6.44;100.00;101661.16;4949101;28;20442;-79
2022/11/27 09:47:05;;;;;;;4.50;1.65;;;;;;;6.44;100.00;101658.59;4947257;28;20074;-79
2022/11/27 09:49:38;;;;;;;3.75;1.45;;;;;;;6.42;100.00;101650.75;4949942;28;20143;-78
2022/11/27 09:52:09;;;;;;;;;;;;;;;6.45;100.00;101657.78;4954463;28;20211;-79
2022/11/27 09:54:44;;;;;;;6.35;2.30;;;;;;;6.48;100.00;101648.56;4952564;28;20493;-79
2022/11/27 09:57:17;;;;;;;5.15;1.40;;;;;;;6.52;100.00;101649.63;4952383;28;20059;-78
2022/11/27 09:59:51;;;;;;;6.35;1.65;;;;;;;6.53;100.00;101640.22;4954658;28;20601;-80
2022/11/27 10:02:28;;;;;;;7.80;2.15;;;;;;;6.55;100.00;101639.56;4941504;28;20058;-82
2022/11/27 10:04:58;;;;;;;3.40;1.48;;;;;;;6.59;100.00;101644.06;4951554;28;20048;-78
2022/11/27 10:07:37;;;;;;;6.05;1.60;;;;;;;6.60;100.00;101643.28;4951083;28;20505;-79
2022/11/27 10:10:21;;;;;;;4.05;1.55;;;;;;;6.61;100.00;101639.00;4948461;28;20039;-79
2022/11/27 10:13:00;;;;;;;6.50;1.35;;;;;;;6.61;100.00;101628.72;4949661;28;20077;-79
2022/11/27 10:15:38;;;;;;;3.17;1.02;;;;;;;6.62;100.00;101625.34;4956127;28;20047;-80
2022/11/27 10:18:15;;;;;;;2.30;0.95;;;;;;;6.64;100.00;101634.03;4946033;28;20146;-80
2022/11/27 10:20:49;;;;;;;2.35;1.42;;;;;;;6.62;100.00;101622.78;4952189;28;20632;-79
2022/11/27 10:23:28;;;;;;;4.07;1.40;;;;;;;6.64;100.00;101613.47;4945643;28;20043;-80
2022/11/27 10:26:00;;;;;;;1.33;0.80;;;;;;;6.61;100.00;101598.75;4946996;28;20669;-78
2022/11/27 10:28:34;;;;;;;;;;;;;;;6.61;100.00;101605.59;4942821;28;20082;-78
2022/11/27 10:31:05;;;;;;;3.40;1.23;;;;;;;6.61;100.00;101609.03;4949941;28;19934;-80
2022/11/27 10:33:43;;;;;;;1.30;0.85;;;;;;;6.62;100.00;101599.63;4942995;28;20263;-78
2022/11/27 10:36:15;;;;;;;2.60;1.50;;;;;;;6.61;100.00;101587.59;4952025;28;20126;-77
2022/11/27 10:38:45;;;;;;;2.35;1.42;;;;;;;6.59;100.00;101584.91;4950844;28;20043;-80
2022/11/27 10:41:18;;;;;;;3.03;1.30;;;;;;;6.59;100.00;101584.91;4952627;28;20423;-78
2022/11/27 10:43:48;;;;;;;;;;;;;;;6.56;100.00;101578.72;4951101;28;20070;-79
2022/11/27 10:46:22;;;;;;;5.65;2.00;;;;;;;6.57;100.00;101568.50;4948622;28;19932;-80
2022/11/27 10:48:53;;;;;;;4.10;1.95;;;;;;;6.54;100.00;101575.16;4949288;28;20043;-81
2022/11/27 10:51:24;;;;;;;4.32;1.70;;;;;;;6.55;100.00;101579.50;4946972;28;20126;-82
2022/11/27 10:53:55;;;;;;;5.05;2.13;;;;;;;6.50;100.00;101580.13;4947193;28;20043;-85
2022/11/27 10:56:43;;;;;;;5.80;2.10;;;;;;;6.54;100.00;101567.44;4945332;28;20068;-81
2022/11/27 10:59:16;;;;;;;5.45;2.03;;;;;;;6.54;100.00;101564.88;4909603;29;20052;-82
2022/11/27 11:01:46;;;;;;;3.72;2.35;;;;;;;6.52;100.00;101562.22;4912908;29;20155;-81
2022/11/27 11:04:21;;;;;;;3.53;1.98;;;;;;;6.53;100.00;101557.94;4910344;29;20224;-79
2022/11/27 11:06:50;;;;;;;3.75;1.85;;;;;;;6.55;100.00;101552.13;4905601;29;20054;-81
2022/11/27 11:09:22;;;;;;;3.67;2.10;;;;;;;6.54;100.00;101544.31;4910018;29;20048;-79
2022/11/27 11:11:51;;;;;;;5.18;3.38;;;;;;;6.47;100.00;101538.81;4913729;29;20057;-78
2022/11/27 11:14:22;;;;;;;4.80;2.28;;;;;;;6.49;100.00;101541.47;4907366;29;20044;-80
2022/11/27 11:16:51;;;;;;;5.30;2.53;;;;;;;6.50;100.00;101536.44;4907717;29;20048;-81
2022/11/27 11:19:27;;;;;;;5.43;2.72;;;;;;;6.48;100.00;101529.41;4908821;29;20052;-78
2022/11/27 11:21:55;;;;;;;3.78;2.35;;;;;;;6.41;100.00;101523.00;4912567;29;20092;-76
2022/11/27 11:24:28;;;;;;;6.18;1.92;;;;;;;6.37;100.00;101510.81;4908957;29;20056;-82
2022/11/27 11:27:00;;;;;;;9.98;2.97;;;;;;;6.37;100.00;101509.88;4907753;29;20056;-80
2022/11/27 11:29:33;;;;;;;5.65;2.67;;;;;;;6.36;100.00;101490.13;4907834;29;20513;-81
2022/11/27 11:32:09;;;;;;;4.15;1.92;;;;;;;6.22;100.00;101490.22;4909581;29;20044;-79
2022/11/27 11:34:43;;;;;;;5.90;2.70;;;;;;;6.25;100.00;101481.78;4910200;29;20058;-80
2022/11/27 11:37:23;;;;;;;6.65;2.85;;;;;;;6.28;100.00;101475.16;4911763;29;20689;-80
2022/11/27 11:39:57;;;;;;;6.57;2.83;;;;;;;6.28;100.00;101472.59;4910392;29;20067;-80
2022/11/27 11:42:29;;;;;;;4.38;2.30;;;;;;;6.24;100.00;101462.03;4913692;29;20040;-82
2022/11/27 11:45:07;;;;;;;6.57;3.00;;;;;;;6.23;100.00;101449.97;4909812;29;20052;-81
2022/11/27 11:47:38;;;;;;;6.43;2.65;;;;;;;6.23;100.00;101444.84;4909860;29;20066;-81